Airfield :
LOGIN :

Register | Disclaimer

   EN    FR    IT 

 










Legend :    VFR   Marginal VFR   IFR   Intensive IFR   Very Intensive IFR
Visi :
Ceiling :
>= 8 km
>= 3000ft
5 to 8 km
1000 to 3000 ft
1500m to 5 km
500 to 1000 ft
800 to 1500m
200 to 500 ft
< 800m
< 200 ft
Symbols :   Thunderstorms  Fog  Heavy snow  Heavy precipitations  Wind > 20 kt
SIGMETs :     Misc.  Thunderstorms  Icing  Turbulence  Mountain Waves  Volcanic Ashes






- Airport Elevation : 220 ft
- IATA code : CWL


EGFF - Cardiff Rhoose

CURRENT METAR :
  • 212120Z AUTO 06010KT 2700 RA OVC003/// //////TCU 06/05 Q0995 REDZ

EXPIRED METARs :
  • 212050Z AUTO 07010KT 4000 RADZ BKN003/// OVC007/// //////CB 05/05 Q0995 RERA
  • 212020Z AUTO 07011KT 2500 +RA OVC003/// //////TCU 05/05 Q0995 REDZ
  • 211950Z 07013KT 2200 -RA DZ OVC004TCU 05/05 Q0996 REDZ
  • 211920Z AUTO 07015KT 2300 RA OVC003/// //////CB 05/05 Q0996 REDZ
  • 211850Z 06016KT 3600 DZ BR SCT005CB OVC007 05/05 Q0996 RERA

TAF AMD TAF EGFF
Valid from the 21 at 20:00 until the 22 at 18:00 UTC


212010Z 2120/2218 07012KT 6000 -RA BKN010
TEMPO 2120/2202 3000 RA SHRA BKN007
PROB40
TEMPO 2120/2123 +SHRA BKN004
BECMG 2123/2202 9999 NSW SCT025
PROB30
TEMPO 2202/2211 7000 SHRA BKN014
BECMG 2206/2209 13008KT
TEMPO 2211/2218 6000 RA BKN010
BECMG 2213/2216 07010KT
PROB30
TEMPO 2213/2217 4000 +RA
ATIS : +44 1446 729 319



MET'MAP, your aeronautical weather chart ! - Copyright ORBIFLY December 2007 - Disclaimer

ORBIFLY MET'MAP TEAM :

Programming & Development : Alexandra Zaïnal
Concept & Development : Baudouin d'Aumeries
Co-Development & Prog : Marc-Olivier Méhu
Technical & hardware support : Manuel Goepfert

Contact : metmap@orbifly.com




SOURCES & CREDITS :

   NOAA